sensor_id;sensor_type;location;lat;lon;timestamp;temperature;humidity
17331;DHT22;8783;52.448;4.638;2023-08-01T00:00:32;21.60;99.90
17331;DHT22;8783;52.448;4.638;2023-08-01T00:02:59;21.60;99.90
17331;DHT22;8783;52.448;4.638;2023-08-01T00:05:24;21.60;99.90
17331;DHT22;8783;52.448;4.638;2023-08-01T00:07:50;21.60;99.90
17331;DHT22;8783;52.448;4.638;2023-08-01T00:10:15;21.60;99.90
17331;DHT22;8783;52.448;4.638;2023-08-01T00:12:44;21.60;99.90
17331;DHT22;8783;52.448;4.638;2023-08-01T00:15:10;21.60;99.90
17331;DHT22;8783;52.448;4.638;2023-08-01T00:17:36;21.60;99.90
17331;DHT22;8783;52.448;4.638;2023-08-01T00:20:02;21.60;99.90
17331;DHT22;8783;52.448;4.638;2023-08-01T00:22:28;21.60;99.90
17331;DHT22;8783;52.448;4.638;2023-08-01T00:24:54;21.60;99.90
17331;DHT22;8783;52.448;4.638;2023-08-01T00:27:20;21.60;99.90
17331;DHT22;8783;52.448;4.638;2023-08-01T00:29:45;21.60;99.90
17331;DHT22;8783;52.448;4.638;2023-08-01T00:32:11;21.60;99.90
17331;DHT22;8783;52.448;4.638;2023-08-01T00:34:37;21.60;99.90
17331;DHT22;8783;52.448;4.638;2023-08-01T00:37:03;21.60;99.90
17331;DHT22;8783;52.448;4.638;2023-08-01T00:39:29;21.60;99.90
17331;DHT22;8783;52.448;4.638;2023-08-01T00:41:54;21.60;99.90
17331;DHT22;8783;52.448;4.638;2023-08-01T00:44:20;21.60;99.90
17331;DHT22;8783;52.448;4.638;2023-08-01T00:46:46;21.50;99.90
17331;DHT22;8783;52.448;4.638;2023-08-01T00:49:12;21.60;99.90
17331;DHT22;8783;52.448;4.638;2023-08-01T00:51:38;21.60;99.90
17331;DHT22;8783;52.448;4.638;2023-08-01T00:54:04;21.60;99.90
17331;DHT22;8783;52.448;4.638;2023-08-01T00:56:29;21.60;99.90
17331;DHT22;8783;52.448;4.638;2023-08-01T00:58:55;21.50;99.90
17331;DHT22;8783;52.448;4.638;2023-08-01T01:01:21;21.60;99.90
17331;DHT22;8783;52.448;4.638;2023-08-01T01:03:48;21.60;99.90
17331;DHT22;8783;52.448;4.638;2023-08-01T01:06:20;21.60;99.90
17331;DHT22;8783;52.448;4.638;2023-08-01T01:08:47;21.50;99.90
17331;DHT22;8783;52.448;4.638;2023-08-01T01:11:13;21.60;99.90
17331;DHT22;8783;52.448;4.638;2023-08-01T01:13:39;21.50;99.90
17331;DHT22;8783;52.448;4.638;2023-08-01T01:16:05;21.50;99.90
17331;DHT22;8783;52.448;4.638;2023-08-01T01:18:34;21.50;99.90
17331;DHT22;8783;52.448;4.638;2023-08-01T01:21:00;21.50;99.90
17331;DHT22;8783;52.448;4.638;2023-08-01T01:23:28;21.50;99.90
17331;DHT22;8783;52.448;4.638;2023-08-01T01:25:57;21.50;99.90
17331;DHT22;8783;52.448;4.638;2023-08-01T01:28:23;21.50;99.90
17331;DHT22;8783;52.448;4.638;2023-08-01T01:30:51;21.50;99.90
17331;DHT22;8783;52.448;4.638;2023-08-01T01:33:20;21.50;99.90
17331;DHT22;8783;52.448;4.638;2023-08-01T01:35:47;21.50;99.90
17331;DHT22;8783;52.448;4.638;2023-08-01T01:38:13;21.50;99.90
17331;DHT22;8783;52.448;4.638;2023-08-01T01:40:41;21.50;99.90
17331;DHT22;8783;52.448;4.638;2023-08-01T01:43:07;21.50;99.90
17331;DHT22;8783;52.448;4.638;2023-08-01T01:45:33;21.50;99.90
17331;DHT22;8783;52.448;4.638;2023-08-01T01:47:58;21.50;99.90
17331;DHT22;8783;52.448;4.638;2023-08-01T01:50:24;21.50;99.90
17331;DHT22;8783;52.448;4.638;2023-08-01T01:52:49;21.50;99.90
17331;DHT22;8783;52.448;4.638;2023-08-01T01:55:15;21.50;99.90
17331;DHT22;8783;52.448;4.638;2023-08-01T01:57:41;21.50;99.90
17331;DHT22;8783;52.448;4.638;2023-08-01T02:00:07;21.50;99.90
17331;DHT22;8783;52.448;4.638;2023-08-01T02:02:36;21.50;99.90
17331;DHT22;8783;52.448;4.638;2023-08-01T02:05:02;21.50;99.90
17331;DHT22;8783;52.448;4.638;2023-08-01T02:07:29;21.50;99.90
17331;DHT22;8783;52.448;4.638;2023-08-01T02:09:55;21.50;99.90
17331;DHT22;8783;52.448;4.638;2023-08-01T02:12:21;21.50;99.90
17331;DHT22;8783;52.448;4.638;2023-08-01T02:14:49;21.50;99.90
17331;DHT22;8783;52.448;4.638;2023-08-01T02:17:15;21.40;99.90
17331;DHT22;8783;52.448;4.638;2023-08-01T02:19:41;21.50;99.90
17331;DHT22;8783;52.448;4.638;2023-08-01T02:22:07;21.40;99.90
17331;DHT22;8783;52.448;4.638;2023-08-01T02:24:32;21.40;99.90
17331;DHT22;8783;52.448;4.638;2023-08-01T02:26:58;21.40;99.90
17331;DHT22;8783;52.448;4.638;2023-08-01T02:29:24;21.40;99.90
17331;DHT22;8783;52.448;4.638;2023-08-01T02:31:52;21.40;99.90
17331;DHT22;8783;52.448;4.638;2023-08-01T02:34:18;21.40;99.90
17331;DHT22;8783;52.448;4.638;2023-08-01T02:36:44;21.40;99.90
17331;DHT22;8783;52.448;4.638;2023-08-01T02:39:09;21.40;99.90
17331;DHT22;8783;52.448;4.638;2023-08-01T02:41:35;21.40;99.90
17331;DHT22;8783;52.448;4.638;2023-08-01T02:44:01;21.40;99.90
17331;DHT22;8783;52.448;4.638;2023-08-01T02:46:26;21.40;99.90
17331;DHT22;8783;52.448;4.638;2023-08-01T02:48:55;21.40;99.90
17331;DHT22;8783;52.448;4.638;2023-08-01T02:51:20;21.40;99.90
17331;DHT22;8783;52.448;4.638;2023-08-01T02:53:49;21.40;99.90
17331;DHT22;8783;52.448;4.638;2023-08-01T02:56:15;21.40;99.90
17331;DHT22;8783;52.448;4.638;2023-08-01T02:58:40;21.40;99.90
17331;DHT22;8783;52.448;4.638;2023-08-01T03:01:09;21.40;99.90
17331;DHT22;8783;52.448;4.638;2023-08-01T03:03:36;21.40;99.90
17331;DHT22;8783;52.448;4.638;2023-08-01T03:06:07;21.40;99.90
17331;DHT22;8783;52.448;4.638;2023-08-01T03:08:33;21.40;99.90
17331;DHT22;8783;52.448;4.638;2023-08-01T03:10:59;21.40;99.90
17331;DHT22;8783;52.448;4.638;2023-08-01T03:13:27;21.40;99.90
17331;DHT22;8783;52.448;4.638;2023-08-01T03:15:53;21.30;99.90
17331;DHT22;8783;52.448;4.638;2023-08-01T03:18:18;21.30;99.90
17331;DHT22;8783;52.448;4.638;2023-08-01T03:20:44;21.30;99.90
17331;DHT22;8783;52.448;4.638;2023-08-01T03:23:13;21.40;99.90
17331;DHT22;8783;52.448;4.638;2023-08-01T03:25:41;21.30;99.90
17331;DHT22;8783;52.448;4.638;2023-08-01T03:28:10;21.40;99.90
17331;DHT22;8783;52.448;4.638;2023-08-01T03:30:35;21.30;99.90
17331;DHT22;8783;52.448;4.638;2023-08-01T03:33:01;21.30;99.90
17331;DHT22;8783;52.448;4.638;2023-08-01T03:35:31;21.30;99.90
17331;DHT22;8783;52.448;4.638;2023-08-01T03:37:59;21.30;99.90
17331;DHT22;8783;52.448;4.638;2023-08-01T03:40:27;21.30;99.90
17331;DHT22;8783;52.448;4.638;2023-08-01T03:42:56;21.30;99.90
17331;DHT22;8783;52.448;4.638;2023-08-01T03:45:22;21.30;99.90
17331;DHT22;8783;52.448;4.638;2023-08-01T03:47:47;21.30;99.90
17331;DHT22;8783;52.448;4.638;2023-08-01T03:50:13;21.30;99.90
17331;DHT22;8783;52.448;4.638;2023-08-01T03:52:39;21.30;99.90
17331;DHT22;8783;52.448;4.638;2023-08-01T03:55:05;21.30;99.90
17331;DHT22;8783;52.448;4.638;2023-08-01T03:57:34;21.30;99.90
17331;DHT22;8783;52.448;4.638;2023-08-01T04:00:03;21.30;99.90
17331;DHT22;8783;52.448;4.638;2023-08-01T04:02:29;21.30;99.90
17331;DHT22;8783;52.448;4.638;2023-08-01T04:04:57;21.30;99.90
17331;DHT22;8783;52.448;4.638;2023-08-01T04:07:22;21.30;99.90
17331;DHT22;8783;52.448;4.638;2023-08-01T04:09:48;21.30;99.90
17331;DHT22;8783;52.448;4.638;2023-08-01T04:12:14;21.30;99.90
17331;DHT22;8783;52.448;4.638;2023-08-01T04:14:39;21.30;99.90
17331;DHT22;8783;52.448;4.638;2023-08-01T04:17:05;21.30;99.90
17331;DHT22;8783;52.448;4.638;2023-08-01T04:19:31;21.20;99.90
17331;DHT22;8783;52.448;4.638;2023-08-01T04:21:57;21.20;99.90
17331;DHT22;8783;52.448;4.638;2023-08-01T04:24:22;21.20;99.90
17331;DHT22;8783;52.448;4.638;2023-08-01T04:26:50;21.30;99.90
17331;DHT22;8783;52.448;4.638;2023-08-01T04:29:19;21.20;99.90
17331;DHT22;8783;52.448;4.638;2023-08-01T04:31:48;21.30;99.90
17331;DHT22;8783;52.448;4.638;2023-08-01T04:34:16;21.30;99.90
17331;DHT22;8783;52.448;4.638;2023-08-01T04:36:42;21.20;99.90
17331;DHT22;8783;52.448;4.638;2023-08-01T04:39:07;21.20;99.90
17331;DHT22;8783;52.448;4.638;2023-08-01T04:41:36;21.20;99.90
17331;DHT22;8783;52.448;4.638;2023-08-01T04:44:01;21.30;99.90
17331;DHT22;8783;52.448;4.638;2023-08-01T04:46:30;21.20;99.90
17331;DHT22;8783;52.448;4.638;2023-08-01T04:48:56;21.20;99.90
17331;DHT22;8783;52.448;4.638;2023-08-01T04:51:25;21.20;99.90
17331;DHT22;8783;52.448;4.638;2023-08-01T04:53:51;21.20;99.90
17331;DHT22;8783;52.448;4.638;2023-08-01T04:56:16;21.30;99.90
17331;DHT22;8783;52.448;4.638;2023-08-01T04:58:42;21.20;99.90
17331;DHT22;8783;52.448;4.638;2023-08-01T05:01:08;21.20;99.90
17331;DHT22;8783;52.448;4.638;2023-08-01T05:03:34;21.20;99.90
17331;DHT22;8783;52.448;4.638;2023-08-01T05:05:59;21.20;99.90
17331;DHT22;8783;52.448;4.638;2023-08-01T05:08:28;21.20;99.90
17331;DHT22;8783;52.448;4.638;2023-08-01T05:10:53;21.20;99.90
17331;DHT22;8783;52.448;4.638;2023-08-01T05:13:19;21.20;99.90
17331;DHT22;8783;52.448;4.638;2023-08-01T05:15:45;21.20;99.90
17331;DHT22;8783;52.448;4.638;2023-08-01T05:18:16;21.20;99.90
17331;DHT22;8783;52.448;4.638;2023-08-01T05:20:41;21.20;99.90
17331;DHT22;8783;52.448;4.638;2023-08-01T05:23:10;21.20;99.90
17331;DHT22;8783;52.448;4.638;2023-08-01T05:25:35;21.20;99.90
17331;DHT22;8783;52.448;4.638;2023-08-01T05:28:01;21.20;99.90
17331;DHT22;8783;52.448;4.638;2023-08-01T05:30:27;21.10;99.90
17331;DHT22;8783;52.448;4.638;2023-08-01T05:32:52;21.20;99.90
17331;DHT22;8783;52.448;4.638;2023-08-01T05:35:19;21.20;99.90
17331;DHT22;8783;52.448;4.638;2023-08-01T05:37:45;21.20;99.90
17331;DHT22;8783;52.448;4.638;2023-08-01T05:40:11;21.10;99.90
17331;DHT22;8783;52.448;4.638;2023-08-01T05:42:37;21.10;99.90
17331;DHT22;8783;52.448;4.638;2023-08-01T05:45:03;21.20;99.90
17331;DHT22;8783;52.448;4.638;2023-08-01T05:47:29;21.10;99.90
17331;DHT22;8783;52.448;4.638;2023-08-01T05:49:55;21.20;99.90
17331;DHT22;8783;52.448;4.638;2023-08-01T05:52:21;21.20;99.90
17331;DHT22;8783;52.448;4.638;2023-08-01T05:54:46;21.20;99.90
17331;DHT22;8783;52.448;4.638;2023-08-01T05:57:12;21.10;99.90
17331;DHT22;8783;52.448;4.638;2023-08-01T05:59:38;21.10;99.90
17331;DHT22;8783;52.448;4.638;2023-08-01T06:02:03;21.20;99.90
17331;DHT22;8783;52.448;4.638;2023-08-01T06:04:29;21.20;99.90
17331;DHT22;8783;52.448;4.638;2023-08-01T06:06:55;21.20;99.90
17331;DHT22;8783;52.448;4.638;2023-08-01T06:09:21;21.10;99.90
17331;DHT22;8783;52.448;4.638;2023-08-01T06:11:47;21.20;99.90
17331;DHT22;8783;52.448;4.638;2023-08-01T06:14:13;21.20;99.90
17331;DHT22;8783;52.448;4.638;2023-08-01T06:16:38;21.30;99.90
17331;DHT22;8783;52.448;4.638;2023-08-01T06:19:04;21.20;99.90
17331;DHT22;8783;52.448;4.638;2023-08-01T06:21:30;21.20;99.90
17331;DHT22;8783;52.448;4.638;2023-08-01T06:23:55;21.20;99.90
17331;DHT22;8783;52.448;4.638;2023-08-01T06:26:21;21.20;99.90
17331;DHT22;8783;52.448;4.638;2023-08-01T06:28:47;21.20;99.90
17331;DHT22;8783;52.448;4.638;2023-08-01T06:31:12;21.20;99.90
17331;DHT22;8783;52.448;4.638;2023-08-01T06:33:38;21.20;99.90
17331;DHT22;8783;52.448;4.638;2023-08-01T06:36:05;21.20;99.90
17331;DHT22;8783;52.448;4.638;2023-08-01T06:38:30;21.20;99.90
17331;DHT22;8783;52.448;4.638;2023-08-01T06:40:56;21.20;99.90
17331;DHT22;8783;52.448;4.638;2023-08-01T06:43:21;21.20;99.90
17331;DHT22;8783;52.448;4.638;2023-08-01T06:45:50;21.20;99.90
17331;DHT22;8783;52.448;4.638;2023-08-01T06:48:15;21.20;99.90
17331;DHT22;8783;52.448;4.638;2023-08-01T06:50:41;21.20;99.90
17331;DHT22;8783;52.448;4.638;2023-08-01T06:53:07;21.10;99.90
17331;DHT22;8783;52.448;4.638;2023-08-01T06:55:33;21.20;99.90
17331;DHT22;8783;52.448;4.638;2023-08-01T06:57:59;21.20;99.90
17331;DHT22;8783;52.448;4.638;2023-08-01T07:00:25;21.20;99.90
17331;DHT22;8783;52.448;4.638;2023-08-01T07:02:50;21.20;99.90
17331;DHT22;8783;52.448;4.638;2023-08-01T07:05:16;21.30;99.90
17331;DHT22;8783;52.448;4.638;2023-08-01T07:07:42;21.30;99.90
17331;DHT22;8783;52.448;4.638;2023-08-01T07:10:08;21.30;99.90
17331;DHT22;8783;52.448;4.638;2023-08-01T07:12:33;21.30;99.90
17331;DHT22;8783;52.448;4.638;2023-08-01T07:14:59;21.30;99.90
17331;DHT22;8783;52.448;4.638;2023-08-01T07:17:24;21.30;99.90
17331;DHT22;8783;52.448;4.638;2023-08-01T07:19:50;21.30;99.90
17331;DHT22;8783;52.448;4.638;2023-08-01T07:22:16;21.30;99.90
17331;DHT22;8783;52.448;4.638;2023-08-01T07:24:41;21.20;99.90
17331;DHT22;8783;52.448;4.638;2023-08-01T07:27:07;21.20;99.90
17331;DHT22;8783;52.448;4.638;2023-08-01T07:29:32;21.20;99.90
17331;DHT22;8783;52.448;4.638;2023-08-01T07:31:58;21.20;99.90
17331;DHT22;8783;52.448;4.638;2023-08-01T07:34:24;21.20;99.90
17331;DHT22;8783;52.448;4.638;2023-08-01T07:36:50;21.20;99.90
17331;DHT22;8783;52.448;4.638;2023-08-01T07:39:16;21.20;99.90
17331;DHT22;8783;52.448;4.638;2023-08-01T07:41:44;21.20;99.90
17331;DHT22;8783;52.448;4.638;2023-08-01T07:44:10;21.20;99.90
17331;DHT22;8783;52.448;4.638;2023-08-01T07:46:38;21.20;99.90
17331;DHT22;8783;52.448;4.638;2023-08-01T07:49:04;21.20;99.90
17331;DHT22;8783;52.448;4.638;2023-08-01T07:51:30;21.20;99.90
17331;DHT22;8783;52.448;4.638;2023-08-01T07:53:57;21.30;99.90
17331;DHT22;8783;52.448;4.638;2023-08-01T07:56:22;21.30;99.90
17331;DHT22;8783;52.448;4.638;2023-08-01T07:58:48;21.30;99.90
17331;DHT22;8783;52.448;4.638;2023-08-01T08:01:13;21.20;99.90
17331;DHT22;8783;52.448;4.638;2023-08-01T08:03:39;21.20;99.90
17331;DHT22;8783;52.448;4.638;2023-08-01T08:06:05;21.20;99.90
17331;DHT22;8783;52.448;4.638;2023-08-01T08:08:31;21.20;99.90
17331;DHT22;8783;52.448;4.638;2023-08-01T08:10:59;21.20;99.90
17331;DHT22;8783;52.448;4.638;2023-08-01T08:13:26;21.20;99.90
17331;DHT22;8783;52.448;4.638;2023-08-01T08:15:52;21.10;99.90
17331;DHT22;8783;52.448;4.638;2023-08-01T08:18:20;21.10;99.90
17331;DHT22;8783;52.448;4.638;2023-08-01T08:20:45;21.10;99.90
17331;DHT22;8783;52.448;4.638;2023-08-01T08:23:12;21.10;99.90
17331;DHT22;8783;52.448;4.638;2023-08-01T08:25:41;21.10;99.90
17331;DHT22;8783;52.448;4.638;2023-08-01T08:28:07;21.10;99.90
17331;DHT22;8783;52.448;4.638;2023-08-01T08:30:34;21.10;99.90
17331;DHT22;8783;52.448;4.638;2023-08-01T08:33:00;21.10;99.90
17331;DHT22;8783;52.448;4.638;2023-08-01T08:35:30;21.10;99.90
17331;DHT22;8783;52.448;4.638;2023-08-01T08:37:58;21.10;99.90
17331;DHT22;8783;52.448;4.638;2023-08-01T08:40:23;21.10;99.90
17331;DHT22;8783;52.448;4.638;2023-08-01T08:42:49;21.10;99.90
17331;DHT22;8783;52.448;4.638;2023-08-01T08:45:19;21.10;99.90
17331;DHT22;8783;52.448;4.638;2023-08-01T08:47:48;21.10;99.90
17331;DHT22;8783;52.448;4.638;2023-08-01T08:50:17;21.10;99.90
17331;DHT22;8783;52.448;4.638;2023-08-01T08:52:43;21.10;99.90
17331;DHT22;8783;52.448;4.638;2023-08-01T08:55:11;21.10;99.90
17331;DHT22;8783;52.448;4.638;2023-08-01T08:57:37;21.20;99.90
17331;DHT22;8783;52.448;4.638;2023-08-01T09:00:05;21.10;99.90
17331;DHT22;8783;52.448;4.638;2023-08-01T09:02:32;21.20;99.90
17331;DHT22;8783;52.448;4.638;2023-08-01T09:04:58;21.20;99.90
17331;DHT22;8783;52.448;4.638;2023-08-01T09:07:24;21.20;99.90
17331;DHT22;8783;52.448;4.638;2023-08-01T09:09:54;21.20;99.90
17331;DHT22;8783;52.448;4.638;2023-08-01T09:12:21;21.20;99.90
17331;DHT22;8783;52.448;4.638;2023-08-01T09:14:48;21.20;99.90
17331;DHT22;8783;52.448;4.638;2023-08-01T09:17:15;21.20;99.90
17331;DHT22;8783;52.448;4.638;2023-08-01T09:19:43;21.20;99.90
17331;DHT22;8783;52.448;4.638;2023-08-01T09:22:11;21.20;99.90
17331;DHT22;8783;52.448;4.638;2023-08-01T09:24:37;21.20;99.90
17331;DHT22;8783;52.448;4.638;2023-08-01T09:27:03;21.20;99.90
17331;DHT22;8783;52.448;4.638;2023-08-01T09:29:30;21.20;99.90
17331;DHT22;8783;52.448;4.638;2023-08-01T09:31:57;21.10;99.90
17331;DHT22;8783;52.448;4.638;2023-08-01T09:34:25;21.20;99.90
17331;DHT22;8783;52.448;4.638;2023-08-01T09:36:56;21.20;99.90
17331;DHT22;8783;52.448;4.638;2023-08-01T09:39:22;21.20;99.90
17331;DHT22;8783;52.448;4.638;2023-08-01T09:41:58;21.20;99.90
17331;DHT22;8783;52.448;4.638;2023-08-01T09:44:25;21.20;99.90
17331;DHT22;8783;52.448;4.638;2023-08-01T09:47:02;21.20;99.90
17331;DHT22;8783;52.448;4.638;2023-08-01T09:49:29;21.20;99.90
17331;DHT22;8783;52.448;4.638;2023-08-01T09:51:55;21.10;99.90
17331;DHT22;8783;52.448;4.638;2023-08-01T09:54:21;21.20;99.90
17331;DHT22;8783;52.448;4.638;2023-08-01T09:56:49;21.20;99.90
17331;DHT22;8783;52.448;4.638;2023-08-01T09:59:22;21.10;99.90
17331;DHT22;8783;52.448;4.638;2023-08-01T10:01:49;21.10;99.90
17331;DHT22;8783;52.448;4.638;2023-08-01T10:04:29;21.10;99.90
17331;DHT22;8783;52.448;4.638;2023-08-01T10:07:00;21.10;99.90
17331;DHT22;8783;52.448;4.638;2023-08-01T10:09:30;21.10;99.90
17331;DHT22;8783;52.448;4.638;2023-08-01T10:11:57;21.10;99.90
17331;DHT22;8783;52.448;4.638;2023-08-01T10:14:23;21.10;99.90
17331;DHT22;8783;52.448;4.638;2023-08-01T10:16:51;21.10;99.90
17331;DHT22;8783;52.448;4.638;2023-08-01T10:19:17;21.10;99.90
17331;DHT22;8783;52.448;4.638;2023-08-01T10:21:45;21.10;99.90
17331;DHT22;8783;52.448;4.638;2023-08-01T10:24:13;21.10;99.90
17331;DHT22;8783;52.448;4.638;2023-08-01T10:26:40;21.10;99.90
17331;DHT22;8783;52.448;4.638;2023-08-01T10:29:05;21.10;99.90
17331;DHT22;8783;52.448;4.638;2023-08-01T10:31:31;21.20;99.90
17331;DHT22;8783;52.448;4.638;2023-08-01T10:34:05;21.20;99.90
17331;DHT22;8783;52.448;4.638;2023-08-01T10:36:31;21.10;99.90
17331;DHT22;8783;52.448;4.638;2023-08-01T10:38:59;21.10;99.90
17331;DHT22;8783;52.448;4.638;2023-08-01T10:41:35;21.10;99.90
17331;DHT22;8783;52.448;4.638;2023-08-01T10:44:09;21.10;99.90
17331;DHT22;8783;52.448;4.638;2023-08-01T10:46:50;21.10;99.90
17331;DHT22;8783;52.448;4.638;2023-08-01T10:49:17;21.10;99.90
17331;DHT22;8783;52.448;4.638;2023-08-01T10:51:44;21.10;99.90
17331;DHT22;8783;52.448;4.638;2023-08-01T10:54:24;21.10;99.90
17331;DHT22;8783;52.448;4.638;2023-08-01T10:56:55;21.10;99.90
17331;DHT22;8783;52.448;4.638;2023-08-01T10:59:22;21.10;99.90
17331;DHT22;8783;52.448;4.638;2023-08-01T11:01:52;21.10;99.90
17331;DHT22;8783;52.448;4.638;2023-08-01T11:04:20;21.10;99.90
17331;DHT22;8783;52.448;4.638;2023-08-01T11:06:48;21.10;99.90
17331;DHT22;8783;52.448;4.638;2023-08-01T11:09:19;21.10;99.90
17331;DHT22;8783;52.448;4.638;2023-08-01T11:11:45;21.20;99.90
17331;DHT22;8783;52.448;4.638;2023-08-01T11:14:13;21.20;99.90
17331;DHT22;8783;52.448;4.638;2023-08-01T11:16:43;21.20;99.90
17331;DHT22;8783;52.448;4.638;2023-08-01T11:19:29;21.20;99.90
17331;DHT22;8783;52.448;4.638;2023-08-01T11:21:55;21.20;99.90
17331;DHT22;8783;52.448;4.638;2023-08-01T11:24:25;21.20;99.90
17331;DHT22;8783;52.448;4.638;2023-08-01T11:26:53;21.20;99.90
17331;DHT22;8783;52.448;4.638;2023-08-01T11:29:19;21.20;99.90
17331;DHT22;8783;52.448;4.638;2023-08-01T11:31:53;21.20;99.90
17331;DHT22;8783;52.448;4.638;2023-08-01T11:34:19;21.20;99.90
17331;DHT22;8783;52.448;4.638;2023-08-01T11:36:47;21.20;99.90
17331;DHT22;8783;52.448;4.638;2023-08-01T11:39:15;21.20;99.90
17331;DHT22;8783;52.448;4.638;2023-08-01T11:41:41;21.10;99.90
17331;DHT22;8783;52.448;4.638;2023-08-01T11:44:07;21.10;99.90
17331;DHT22;8783;52.448;4.638;2023-08-01T11:46:35;21.10;99.90
17331;DHT22;8783;52.448;4.638;2023-08-01T11:49:10;21.10;99.90
17331;DHT22;8783;52.448;4.638;2023-08-01T11:51:43;21.10;99.90
17331;DHT22;8783;52.448;4.638;2023-08-01T11:54:10;21.20;99.90
17331;DHT22;8783;52.448;4.638;2023-08-01T11:56:38;21.20;99.90
17331;DHT22;8783;52.448;4.638;2023-08-01T12:01:43;21.10;99.90
17331;DHT22;8783;52.448;4.638;2023-08-01T12:04:09;21.10;99.90
17331;DHT22;8783;52.448;4.638;2023-08-01T12:06:38;21.10;99.90
17331;DHT22;8783;52.448;4.638;2023-08-01T12:09:31;21.10;99.90
17331;DHT22;8783;52.448;4.638;2023-08-01T12:11:59;21.10;99.90
17331;DHT22;8783;52.448;4.638;2023-08-01T12:14:26;21.10;99.90
17331;DHT22;8783;52.448;4.638;2023-08-01T12:16:53;21.20;99.90
17331;DHT22;8783;52.448;4.638;2023-08-01T12:19:20;21.20;99.90
17331;DHT22;8783;52.448;4.638;2023-08-01T12:21:46;21.20;99.90
17331;DHT22;8783;52.448;4.638;2023-08-01T12:24:12;21.20;99.90
17331;DHT22;8783;52.448;4.638;2023-08-01T12:26:41;21.20;99.90
17331;DHT22;8783;52.448;4.638;2023-08-01T12:29:06;21.20;99.90
17331;DHT22;8783;52.448;4.638;2023-08-01T12:31:33;21.20;99.90
17331;DHT22;8783;52.448;4.638;2023-08-01T12:33:58;21.10;99.90
17331;DHT22;8783;52.448;4.638;2023-08-01T12:36:27;21.20;99.90
17331;DHT22;8783;52.448;4.638;2023-08-01T12:38:52;21.10;99.90
17331;DHT22;8783;52.448;4.638;2023-08-01T12:41:18;21.10;99.90
17331;DHT22;8783;52.448;4.638;2023-08-01T12:43:43;21.20;99.90
17331;DHT22;8783;52.448;4.638;2023-08-01T12:46:09;21.10;99.90
17331;DHT22;8783;52.448;4.638;2023-08-01T12:48:35;21.20;99.90
17331;DHT22;8783;52.448;4.638;2023-08-01T12:51:00;21.10;99.90
17331;DHT22;8783;52.448;4.638;2023-08-01T12:53:27;21.10;99.90
17331;DHT22;8783;52.448;4.638;2023-08-01T12:55:53;21.20;99.90
17331;DHT22;8783;52.448;4.638;2023-08-01T12:58:22;21.20;99.90
17331;DHT22;8783;52.448;4.638;2023-08-01T13:00:48;21.10;99.90
17331;DHT22;8783;52.448;4.638;2023-08-01T13:03:16;21.10;99.90
17331;DHT22;8783;52.448;4.638;2023-08-01T13:05:43;21.20;99.90
17331;DHT22;8783;52.448;4.638;2023-08-01T13:08:09;21.10;99.90
17331;DHT22;8783;52.448;4.638;2023-08-01T13:10:37;21.10;99.90
17331;DHT22;8783;52.448;4.638;2023-08-01T13:13:02;21.10;99.90
17331;DHT22;8783;52.448;4.638;2023-08-01T13:15:29;21.10;99.90
17331;DHT22;8783;52.448;4.638;2023-08-01T13:17:55;21.10;99.90
17331;DHT22;8783;52.448;4.638;2023-08-01T13:20:24;21.10;99.90
17331;DHT22;8783;52.448;4.638;2023-08-01T13:22:52;21.10;99.90
17331;DHT22;8783;52.448;4.638;2023-08-01T13:25:22;21.10;99.90
17331;DHT22;8783;52.448;4.638;2023-08-01T13:27:47;21.10;99.90
17331;DHT22;8783;52.448;4.638;2023-08-01T13:30:16;21.10;99.90
17331;DHT22;8783;52.448;4.638;2023-08-01T13:32:48;21.10;99.90
17331;DHT22;8783;52.448;4.638;2023-08-01T13:35:14;21.10;99.90
17331;DHT22;8783;52.448;4.638;2023-08-01T13:37:40;21.10;99.90
17331;DHT22;8783;52.448;4.638;2023-08-01T13:40:06;21.10;99.90
17331;DHT22;8783;52.448;4.638;2023-08-01T13:42:32;21.10;99.90
17331;DHT22;8783;52.448;4.638;2023-08-01T13:44:59;21.10;99.90
17331;DHT22;8783;52.448;4.638;2023-08-01T13:47:25;21.10;99.90
17331;DHT22;8783;52.448;4.638;2023-08-01T13:49:50;21.10;99.90
17331;DHT22;8783;52.448;4.638;2023-08-01T13:52:19;21.10;99.90
17331;DHT22;8783;52.448;4.638;2023-08-01T13:54:47;21.10;99.90
17331;DHT22;8783;52.448;4.638;2023-08-01T13:57:13;21.10;99.90
17331;DHT22;8783;52.448;4.638;2023-08-01T13:59:38;21.10;99.90
17331;DHT22;8783;52.448;4.638;2023-08-01T14:02:05;21.10;99.90
17331;DHT22;8783;52.448;4.638;2023-08-01T14:04:30;21.10;99.90
17331;DHT22;8783;52.448;4.638;2023-08-01T14:06:56;21.10;99.90
17331;DHT22;8783;52.448;4.638;2023-08-01T14:09:21;21.10;99.90
17331;DHT22;8783;52.448;4.638;2023-08-01T14:11:47;21.10;99.90
17331;DHT22;8783;52.448;4.638;2023-08-01T14:14:13;21.00;99.90
17331;DHT22;8783;52.448;4.638;2023-08-01T14:16:41;21.00;99.90
17331;DHT22;8783;52.448;4.638;2023-08-01T14:19:07;21.00;99.90
17331;DHT22;8783;52.448;4.638;2023-08-01T14:21:36;21.00;99.90
17331;DHT22;8783;52.448;4.638;2023-08-01T14:24:04;21.00;99.90
17331;DHT22;8783;52.448;4.638;2023-08-01T14:26:30;21.00;99.90
17331;DHT22;8783;52.448;4.638;2023-08-01T14:28:55;21.00;99.90
17331;DHT22;8783;52.448;4.638;2023-08-01T14:31:21;21.00;99.90
17331;DHT22;8783;52.448;4.638;2023-08-01T14:33:49;21.00;99.90
17331;DHT22;8783;52.448;4.638;2023-08-01T14:36:15;21.10;99.90
17331;DHT22;8783;52.448;4.638;2023-08-01T14:38:41;21.10;99.90
17331;DHT22;8783;52.448;4.638;2023-08-01T14:41:09;21.00;99.90
17331;DHT22;8783;52.448;4.638;2023-08-01T14:43:35;20.90;99.90
17331;DHT22;8783;52.448;4.638;2023-08-01T14:46:01;20.90;99.90
17331;DHT22;8783;52.448;4.638;2023-08-01T14:48:28;21.00;99.90
17331;DHT22;8783;52.448;4.638;2023-08-01T14:50:53;21.00;99.90
17331;DHT22;8783;52.448;4.638;2023-08-01T14:53:19;21.00;99.90
17331;DHT22;8783;52.448;4.638;2023-08-01T14:55:44;21.00;99.90
17331;DHT22;8783;52.448;4.638;2023-08-01T14:58:13;21.00;99.90
17331;DHT22;8783;52.448;4.638;2023-08-01T15:00:38;21.00;99.90
17331;DHT22;8783;52.448;4.638;2023-08-01T15:03:07;21.00;99.90
17331;DHT22;8783;52.448;4.638;2023-08-01T15:05:32;21.00;99.90
17331;DHT22;8783;52.448;4.638;2023-08-01T15:07:58;21.00;99.90
17331;DHT22;8783;52.448;4.638;2023-08-01T15:10:25;21.00;99.90
17331;DHT22;8783;52.448;4.638;2023-08-01T15:12:51;21.00;99.90
17331;DHT22;8783;52.448;4.638;2023-08-01T15:15:18;21.00;99.90
17331;DHT22;8783;52.448;4.638;2023-08-01T15:17:46;21.00;99.90
17331;DHT22;8783;52.448;4.638;2023-08-01T15:20:12;21.00;99.90
17331;DHT22;8783;52.448;4.638;2023-08-01T15:22:40;21.00;99.90
17331;DHT22;8783;52.448;4.638;2023-08-01T15:25:06;21.00;99.90
17331;DHT22;8783;52.448;4.638;2023-08-01T15:27:35;21.00;99.90
17331;DHT22;8783;52.448;4.638;2023-08-01T15:30:01;21.00;99.90
17331;DHT22;8783;52.448;4.638;2023-08-01T15:32:27;21.00;99.90
17331;DHT22;8783;52.448;4.638;2023-08-01T15:34:54;21.00;99.90
17331;DHT22;8783;52.448;4.638;2023-08-01T15:37:20;21.00;99.90
17331;DHT22;8783;52.448;4.638;2023-08-01T15:39:46;21.00;99.90
17331;DHT22;8783;52.448;4.638;2023-08-01T15:42:11;21.00;99.90
17331;DHT22;8783;52.448;4.638;2023-08-01T15:44:37;20.90;99.90